CFG4YZ EDDL-LGKR
Flight info
| Callsign | CFG4YZ |
|---|---|
| Flight time | N/A |
| Altitude | 35000 |
| Route | DODEN7Z DODEN Y853 BOMBI DCT DETEV DCT DINKU M867 XERUM DCT BAVAX DCT RADIZ DCT ALIVO DCT UNIPA DCT VAKSU DCT RODON DCT LIMJA N732 PITAS |
| Aircraft | B753/M-SDE2E3FGHIJ3J4J7RWXY/LB1 |
Departure
| Time | 2026-05-06 11:21 |
|---|---|
| Airport | Düsseldorf Airport (EDDL) |
Arrival
| Time | N/A |
|---|---|
| Airport | Corfu Ioannis Kapodistrias International Airport (LGKR) |
| Time | Latitude | Longitude | Altitude | Speed | Heading |
|---|---|---|---|---|---|
| 2026-05-06 10:51 | 51.28109 | 6.76526 | 132 ft | 0 kts | 97° |
| 2026-05-06 11:11 | 51.28111 | 6.76509 | 131 ft | 2 kts | 97° |
| 2026-05-06 11:11 | 51.28113 | 6.76483 | 130 ft | 2 kts | 96° |
| 2026-05-06 11:11 | 51.28117 | 6.76445 | 129 ft | 4 kts | 110° |
| 2026-05-06 11:12 | 51.28130 | 6.76413 | 128 ft | 3 kts | 141° |
| 2026-05-06 11:12 | 51.28146 | 6.76402 | 127 ft | 2 kts | 180° |
| 2026-05-06 11:12 | 51.28153 | 6.76403 | 127 ft | 0 kts | 201° |
| 2026-05-06 11:15 | 51.28155 | 6.76404 | 127 ft | 0 kts | 202° |
| 2026-05-06 11:17 | 51.28151 | 6.76401 | 127 ft | 2 kts | 203° |
| 2026-05-06 11:17 | 51.28139 | 6.76337 | 126 ft | 8 kts | 302° |
| 2026-05-06 11:17 | 51.28167 | 6.76281 | 124 ft | 10 kts | 316° |
| 2026-05-06 11:18 | 51.28200 | 6.76178 | 122 ft | 12 kts | 251° |
| 2026-05-06 11:18 | 51.28142 | 6.76046 | 120 ft | 16 kts | 233° |
| 2026-05-06 11:18 | 51.28086 | 6.75928 | 119 ft | 17 kts | 232° |
| 2026-05-06 11:18 | 51.28003 | 6.75756 | 120 ft | 17 kts | 233° |
| 2026-05-06 11:19 | 51.27933 | 6.75607 | 123 ft | 16 kts | 233° |
| 2026-05-06 11:19 | 51.27866 | 6.75468 | 125 ft | 15 kts | 232° |
| 2026-05-06 11:19 | 51.27860 | 6.75342 | 125 ft | 12 kts | 318° |
| 2026-05-06 11:19 | 51.27939 | 6.75272 | 123 ft | 7 kts | 333° |
| 2026-05-06 11:20 | 51.27978 | 6.75259 | 123 ft | 6 kts | 13° |
| 2026-05-06 11:20 | 51.28011 | 6.75308 | 122 ft | 8 kts | 50° |
| 2026-05-06 11:20 | 51.28158 | 6.75610 | 122 ft | 65 kts | 53° |
| 2026-05-06 11:20 | 51.28553 | 6.76442 | 126 ft | 123 kts | 53° |
| 2026-05-06 11:21 | 51.29168 | 6.77740 | 253 ft | 162 kts | 50° |
| 2026-05-06 11:21 | 51.29837 | 6.79177 | 937 ft | 163 kts | 52° |
| 2026-05-06 11:21 | 51.30484 | 6.80648 | 1610 ft | 167 kts | 49° |
| 2026-05-06 11:21 | 51.31215 | 6.82057 | 2240 ft | 172 kts | 46° |
| 2026-05-06 11:22 | 51.31929 | 6.83298 | 2674 ft | 185 kts | 45° |
| 2026-05-06 11:22 | 51.32887 | 6.85059 | 3211 ft | 206 kts | 50° |
| 2026-05-06 11:22 | 51.33798 | 6.86970 | 3684 ft | 228 kts | 50° |
| 2026-05-06 11:22 | 51.34693 | 6.88899 | 4243 ft | 245 kts | 59° |
| 2026-05-06 11:23 | 51.35170 | 6.92031 | 4887 ft | 271 kts | 92° |
| 2026-05-06 11:23 | 51.34906 | 6.95039 | 5052 ft | 282 kts | 98° |
| 2026-05-06 11:23 | 51.34578 | 6.98180 | 5911 ft | 281 kts | 97° |
| 2026-05-06 11:23 | 51.34257 | 7.01351 | 6889 ft | 285 kts | 98° |
| 2026-05-06 11:24 | 51.33928 | 7.04601 | 7774 ft | 290 kts | 99° |
| 2026-05-06 11:24 | 51.33591 | 7.07917 | 8643 ft | 295 kts | 100° |
| 2026-05-06 11:24 | 51.33256 | 7.11222 | 9429 ft | 301 kts | 100° |
| 2026-05-06 11:24 | 51.32903 | 7.14373 | 10218 ft | 304 kts | 107° |
| 2026-05-06 11:25 | 51.31998 | 7.17462 | 10637 ft | 319 kts | 129° |
| 2026-05-06 11:25 | 51.30329 | 7.20151 | 11033 ft | 334 kts | 143° |
| 2026-05-06 11:25 | 51.28482 | 7.22674 | 11430 ft | 355 kts | 139° |
| 2026-05-06 11:25 | 51.26696 | 7.25388 | 11786 ft | 373 kts | 138° |
| 2026-05-06 11:26 | 51.24926 | 7.28178 | 12322 ft | 383 kts | 136° |
| 2026-05-06 11:26 | 51.23025 | 7.31230 | 13186 ft | 384 kts | 137° |
| 2026-05-06 11:26 | 51.21109 | 7.34344 | 13956 ft | 389 kts | 136° |
| 2026-05-06 11:26 | 51.19130 | 7.37574 | 14709 ft | 394 kts | 136° |
| 2026-05-06 11:27 | 51.17161 | 7.40801 | 15489 ft | 397 kts | 136° |
| 2026-05-06 11:27 | 51.15173 | 7.44056 | 16163 ft | 403 kts | 136° |
| 2026-05-06 11:27 | 51.13285 | 7.47152 | 16911 ft | 405 kts | 135° |
| 2026-05-06 11:27 | 51.11293 | 7.50411 | 17574 ft | 409 kts | 135° |
| 2026-05-06 11:28 | 51.09304 | 7.53662 | 18201 ft | 414 kts | 135° |
| 2026-05-06 11:28 | 51.07340 | 7.56870 | 18833 ft | 418 kts | 135° |
| 2026-05-06 11:28 | 51.05532 | 7.59822 | 19410 ft | 420 kts | 135° |
| 2026-05-06 11:28 | 51.03440 | 7.63231 | 20049 ft | 424 kts | 135° |
| 2026-05-06 11:29 | 51.01547 | 7.66312 | 20617 ft | 427 kts | 136° |
| 2026-05-06 11:29 | 50.99413 | 7.69780 | 21242 ft | 431 kts | 135° |
| 2026-05-06 11:29 | 50.97258 | 7.73278 | 21832 ft | 434 kts | 135° |
| 2026-05-06 11:29 | 50.95110 | 7.76804 | 22405 ft | 438 kts | 134° |
| 2026-05-06 11:30 | 50.93011 | 7.80432 | 22953 ft | 442 kts | 134° |
| 2026-05-06 11:30 | 50.90920 | 7.84020 | 23453 ft | 446 kts | 134° |
| 2026-05-06 11:30 | 50.88867 | 7.87464 | 23971 ft | 449 kts | 134° |
| 2026-05-06 11:30 | 50.86710 | 7.91024 | 24467 ft | 453 kts | 135° |
| 2026-05-06 11:31 | 50.84582 | 7.94552 | 24989 ft | 455 kts | 134° |
| 2026-05-06 11:31 | 50.82357 | 7.98221 | 25468 ft | 459 kts | 135° |
| 2026-05-06 11:31 | 50.80071 | 8.01943 | 25979 ft | 462 kts | 135° |
| 2026-05-06 11:31 | 50.77944 | 8.05382 | 26394 ft | 466 kts | 135° |
| 2026-05-06 11:32 | 50.75597 | 8.09158 | 26851 ft | 469 kts | 135° |
| 2026-05-06 11:32 | 50.73228 | 8.12952 | 27436 ft | 469 kts | 135° |
| 2026-05-06 11:32 | 50.70941 | 8.16575 | 27678 ft | 477 kts | 134° |
| 2026-05-06 11:32 | 50.68584 | 8.20351 | 28265 ft | 475 kts | 135° |
| 2026-05-06 11:33 | 50.66316 | 8.23975 | 29046 ft | 470 kts | 135° |
| 2026-05-06 11:33 | 50.64091 | 8.27515 | 29414 ft | 473 kts | 136° |
| 2026-05-06 11:33 | 50.61634 | 8.31307 | 29620 ft | 480 kts | 137° |
| 2026-05-06 11:33 | 50.59123 | 8.35158 | 29798 ft | 487 kts | 137° |
| 2026-05-06 11:34 | 50.56611 | 8.39014 | 30235 ft | 489 kts | 138° |
| 2026-05-06 11:34 | 50.54059 | 8.42925 | 30665 ft | 491 kts | 138° |
| 2026-05-06 11:34 | 50.51544 | 8.46780 | 31352 ft | 485 kts | 138° |
| 2026-05-06 11:34 | 50.49073 | 8.50560 | 31905 ft | 481 kts | 139° |
| 2026-05-06 11:35 | 50.46546 | 8.54326 | 32383 ft | 477 kts | 140° |
| 2026-05-06 11:35 | 50.44048 | 8.58019 | 32742 ft | 476 kts | 140° |
| 2026-05-06 11:35 | 50.41555 | 8.61752 | 33113 ft | 474 kts | 139° |
| 2026-05-06 11:35 | 50.39137 | 8.65495 | 33416 ft | 474 kts | 139° |
| 2026-05-06 11:36 | 50.36728 | 8.69235 | 33718 ft | 472 kts | 140° |
| 2026-05-06 11:36 | 50.34272 | 8.73010 | 34041 ft | 470 kts | 140° |
| 2026-05-06 11:36 | 50.31862 | 8.76653 | 34340 ft | 468 kts | 140° |
| 2026-05-06 11:36 | 50.29422 | 8.80328 | 34608 ft | 469 kts | 140° |
| 2026-05-06 11:37 | 50.26981 | 8.84008 | 34747 ft | 466 kts | 140° |
| 2026-05-06 11:37 | 50.25207 | 8.86655 | 34746 ft | 465 kts | 140° |